AZU2925 SBCF-SBCY
Flight info
| Callsign | AZU2925 |
|---|---|
| Flight time | 1h 58m |
| Altitude | 34000 |
| Route | MIMIP UZ8 MABMA |
| Aircraft | E295/M-SDE3GILORVW/S |
Departure
| Time | 2026-05-04 00:31 |
|---|---|
| Airport | Tancredo Neves International Airport (SBCF) |
Arrival
| Time | 2026-05-04 02:30 |
|---|---|
| Airport | Várzea Grande–Marechal Rondon International Airport (SBCY) |
| Time | Latitude | Longitude | Altitude | Speed | Heading |
|---|---|---|---|---|---|
| 2026-05-03 23:56 | -19.63290 | -43.96433 | 2753 ft | 0 kts | 56° |
| 2026-05-04 00:20 | -19.63290 | -43.96434 | 2753 ft | 2 kts | 56° |
| 2026-05-04 00:21 | -19.63302 | -43.96450 | 2751 ft | 3 kts | 39° |
| 2026-05-04 00:21 | -19.63318 | -43.96460 | 2751 ft | 3 kts | 5° |
| 2026-05-04 00:21 | -19.63336 | -43.96458 | 2752 ft | 3 kts | 322° |
| 2026-05-04 00:21 | -19.63342 | -43.96453 | 2751 ft | 0 kts | 319° |
| 2026-05-04 00:24 | -19.63334 | -43.96460 | 2751 ft | 4 kts | 319° |
| 2026-05-04 00:24 | -19.63303 | -43.96489 | 2752 ft | 9 kts | 319° |
| 2026-05-04 00:24 | -19.63239 | -43.96546 | 2752 ft | 15 kts | 321° |
| 2026-05-04 00:25 | -19.63188 | -43.96592 | 2751 ft | 1 kts | 317° |
| 2026-05-04 00:25 | -19.63185 | -43.96596 | 2752 ft | 2 kts | 309° |
| 2026-05-04 00:25 | -19.63192 | -43.96623 | 2751 ft | 6 kts | 236° |
| 2026-05-04 00:25 | -19.63236 | -43.96675 | 2753 ft | 13 kts | 227° |
| 2026-05-04 00:26 | -19.63249 | -43.96759 | 2752 ft | 15 kts | 313° |
| 2026-05-04 00:26 | -19.63164 | -43.96840 | 2752 ft | 18 kts | 319° |
| 2026-05-04 00:26 | -19.63057 | -43.96938 | 2753 ft | 22 kts | 319° |
| 2026-05-04 00:26 | -19.62932 | -43.97054 | 2753 ft | 25 kts | 317° |
| 2026-05-04 00:27 | -19.62792 | -43.97185 | 2752 ft | 28 kts | 319° |
| 2026-05-04 00:27 | -19.62643 | -43.97323 | 2754 ft | 28 kts | 319° |
| 2026-05-04 00:27 | -19.62497 | -43.97457 | 2751 ft | 28 kts | 319° |
| 2026-05-04 00:27 | -19.62357 | -43.97586 | 2752 ft | 17 kts | 319° |
| 2026-05-04 00:28 | -19.62267 | -43.97671 | 2753 ft | 17 kts | 318° |
| 2026-05-04 00:28 | -19.62249 | -43.97752 | 2752 ft | 10 kts | 231° |
| 2026-05-04 00:28 | -19.62256 | -43.97761 | 2752 ft | 0 kts | 231° |
| 2026-05-04 00:29 | -19.62263 | -43.97770 | 2753 ft | 4 kts | 231° |
| 2026-05-04 00:29 | -19.62309 | -43.97780 | 2752 ft | 10 kts | 166° |
| 2026-05-04 00:29 | -19.62331 | -43.97783 | 2753 ft | 6 kts | 202° |
| 2026-05-04 00:30 | -19.62382 | -43.97795 | 2751 ft | 7 kts | 153° |
| 2026-05-04 00:30 | -19.62449 | -43.97729 | 2751 ft | 21 kts | 138° |
| 2026-05-04 00:30 | -19.62651 | -43.97542 | 2749 ft | 68 kts | 141° |
| 2026-05-04 00:30 | -19.63169 | -43.97063 | 2751 ft | 129 kts | 139° |
| 2026-05-04 00:31 | -19.63985 | -43.96305 | 2785 ft | 179 kts | 139° |
| 2026-05-04 00:31 | -19.64995 | -43.95377 | 3277 ft | 203 kts | 139° |
| 2026-05-04 00:31 | -19.66095 | -43.94410 | 4208 ft | 202 kts | 142° |
| 2026-05-04 00:31 | -19.67223 | -43.93475 | 4918 ft | 216 kts | 142° |
| 2026-05-04 00:32 | -19.68387 | -43.92424 | 5498 ft | 226 kts | 137° |
| 2026-05-04 00:32 | -19.69740 | -43.91581 | 6243 ft | 229 kts | 167° |
| 2026-05-04 00:32 | -19.71312 | -43.91731 | 6995 ft | 233 kts | 202° |
| 2026-05-04 00:32 | -19.72565 | -43.92817 | 7685 ft | 238 kts | 234° |
| 2026-05-04 00:33 | -19.73412 | -43.94341 | 8367 ft | 244 kts | 248° |
| 2026-05-04 00:33 | -19.73697 | -43.97956 | 9857 ft | 256 kts | 296° |
| 2026-05-04 00:33 | -19.72531 | -43.99328 | 10737 ft | 254 kts | 334° |
| 2026-05-04 00:34 | -19.70905 | -44.00010 | 11657 ft | 251 kts | 343° |
| 2026-05-04 00:34 | -19.69245 | -44.00517 | 12454 ft | 252 kts | 345° |
| 2026-05-04 00:34 | -19.67540 | -44.01027 | 13192 ft | 257 kts | 344° |
| 2026-05-04 00:34 | -19.65811 | -44.01561 | 13911 ft | 260 kts | 345° |
| 2026-05-04 00:35 | -19.64051 | -44.02046 | 14660 ft | 263 kts | 346° |
| 2026-05-04 00:35 | -19.62276 | -44.02569 | 15398 ft | 266 kts | 343° |
| 2026-05-04 00:35 | -19.60498 | -44.03161 | 16139 ft | 269 kts | 341° |
| 2026-05-04 00:35 | -19.58706 | -44.03791 | 16806 ft | 274 kts | 340° |
| 2026-05-04 00:36 | -19.56926 | -44.04613 | 17112 ft | 291 kts | 326° |
| 2026-05-04 00:36 | -19.55390 | -44.06115 | 17269 ft | 313 kts | 304° |
| 2026-05-04 00:36 | -19.54405 | -44.08202 | 17469 ft | 332 kts | 285° |
| 2026-05-04 00:36 | -19.54169 | -44.10697 | 17729 ft | 350 kts | 263° |
| 2026-05-04 00:37 | -19.54790 | -44.13205 | 18386 ft | 355 kts | 250° |
| 2026-05-04 00:37 | -19.55676 | -44.15650 | 19155 ft | 356 kts | 248° |
| 2026-05-04 00:37 | -19.56604 | -44.18090 | 19863 ft | 358 kts | 252° |
| 2026-05-04 00:37 | -19.57100 | -44.20686 | 20495 ft | 361 kts | 262° |
| 2026-05-04 00:38 | -19.57382 | -44.23346 | 21107 ft | 365 kts | 264° |
| 2026-05-04 00:38 | -19.57621 | -44.26040 | 21697 ft | 369 kts | 264° |
| 2026-05-04 00:38 | -19.57851 | -44.28721 | 22281 ft | 372 kts | 265° |
| 2026-05-04 00:38 | -19.58080 | -44.31465 | 22852 ft | 375 kts | 265° |
| 2026-05-04 00:39 | -19.58309 | -44.34234 | 23380 ft | 378 kts | 264° |
| 2026-05-04 00:39 | -19.58608 | -44.37014 | 23903 ft | 381 kts | 263° |
| 2026-05-04 00:39 | -19.58950 | -44.39810 | 24401 ft | 384 kts | 264° |
| 2026-05-04 00:39 | -19.58912 | -44.42650 | 24880 ft | 387 kts | 275° |
| 2026-05-04 00:40 | -19.58591 | -44.45490 | 25326 ft | 389 kts | 277° |
| 2026-05-04 00:40 | -19.58226 | -44.48344 | 25788 ft | 391 kts | 277° |
| 2026-05-04 00:40 | -19.57864 | -44.51171 | 26210 ft | 394 kts | 277° |
| 2026-05-04 00:40 | -19.57498 | -44.54053 | 26641 ft | 396 kts | 277° |
| 2026-05-04 00:41 | -19.57129 | -44.56953 | 27055 ft | 398 kts | 277° |
| 2026-05-04 00:41 | -19.56758 | -44.59865 | 27461 ft | 400 kts | 277° |
| 2026-05-04 00:41 | -19.56385 | -44.62796 | 27871 ft | 402 kts | 277° |
| 2026-05-04 00:41 | -19.56008 | -44.65737 | 28259 ft | 404 kts | 277° |
| 2026-05-04 00:42 | -19.55632 | -44.68694 | 28641 ft | 406 kts | 277° |
| 2026-05-04 00:42 | -19.55251 | -44.71664 | 28984 ft | 408 kts | 277° |
| 2026-05-04 00:42 | -19.54872 | -44.74608 | 29326 ft | 409 kts | 277° |
| 2026-05-04 00:42 | -19.54487 | -44.77600 | 29637 ft | 411 kts | 277° |
| 2026-05-04 00:43 | -19.54101 | -44.80608 | 29970 ft | 412 kts | 277° |
| 2026-05-04 00:43 | -19.53714 | -44.83626 | 30260 ft | 414 kts | 277° |
| 2026-05-04 00:43 | -19.53323 | -44.86657 | 30508 ft | 416 kts | 277° |
| 2026-05-04 00:43 | -19.52642 | -44.89644 | 30743 ft | 419 kts | 287° |
| 2026-05-04 00:44 | -19.51701 | -44.92569 | 31032 ft | 420 kts | 288° |
| 2026-05-04 00:44 | -19.50723 | -44.95487 | 31280 ft | 422 kts | 288° |
| 2026-05-04 00:44 | -19.49740 | -44.98420 | 31530 ft | 423 kts | 288° |
| 2026-05-04 00:44 | -19.48754 | -45.01368 | 31787 ft | 425 kts | 288° |
| 2026-05-04 00:45 | -19.47781 | -45.04285 | 32040 ft | 426 kts | 288° |
| 2026-05-04 00:45 | -19.46794 | -45.07249 | 32272 ft | 428 kts | 288° |
| 2026-05-04 00:45 | -19.45803 | -45.10226 | 32520 ft | 429 kts | 288° |
| 2026-05-04 00:45 | -19.44811 | -45.13201 | 32847 ft | 428 kts | 288° |
| 2026-05-04 00:46 | -19.43822 | -45.16166 | 33188 ft | 426 kts | 288° |
| 2026-05-04 00:46 | -19.42835 | -45.19120 | 33479 ft | 425 kts | 288° |
| 2026-05-04 00:46 | -19.41851 | -45.22064 | 33751 ft | 424 kts | 288° |
| 2026-05-04 00:46 | -19.40867 | -45.25007 | 34056 ft | 423 kts | 288° |
| 2026-05-04 00:47 | -19.39888 | -45.27933 | 34317 ft | 423 kts | 289° |
| 2026-05-04 00:47 | -19.37904 | -45.33859 | 34310 ft | 436 kts | 289° |
| 2026-05-04 00:47 | -19.36884 | -45.36904 | 34192 ft | 443 kts | 289° |
| 2026-05-04 00:48 | -19.35849 | -45.39979 | 34196 ft | 444 kts | 289° |
| 2026-05-04 00:48 | -19.33772 | -45.46158 | 34182 ft | 446 kts | 289° |
| 2026-05-04 00:49 | -19.31691 | -45.52342 | 34184 ft | 446 kts | 289° |
| 2026-05-04 00:49 | -19.29605 | -45.58527 | 34181 ft | 446 kts | 289° |
| 2026-05-04 00:50 | -19.27531 | -45.64669 | 34182 ft | 446 kts | 289° |
| 2026-05-04 00:50 | -19.26486 | -45.67762 | 34184 ft | 446 kts | 289° |
| 2026-05-04 00:51 | -19.23251 | -45.77326 | 34183 ft | 446 kts | 289° |
| 2026-05-04 00:51 | -19.21155 | -45.83507 | 34183 ft | 446 kts | 289° |
| 2026-05-04 00:52 | -19.19074 | -45.89647 | 34186 ft | 447 kts | 289° |
| 2026-05-04 00:52 | -19.16971 | -45.95830 | 34183 ft | 447 kts | 289° |
| 2026-05-04 00:53 | -19.14868 | -46.02014 | 34185 ft | 447 kts | 289° |
| 2026-05-04 00:53 | -19.12769 | -46.08198 | 34188 ft | 447 kts | 289° |
| 2026-05-04 00:54 | -19.10667 | -46.14382 | 34184 ft | 447 kts | 289° |
| 2026-05-04 00:54 | -19.08575 | -46.20525 | 34187 ft | 447 kts | 289° |
| 2026-05-04 00:55 | -19.06466 | -46.26707 | 34183 ft | 447 kts | 289° |
| 2026-05-04 00:55 | -19.04353 | -46.32896 | 34186 ft | 448 kts | 289° |
| 2026-05-04 00:56 | -19.02241 | -46.39081 | 34185 ft | 448 kts | 289° |
| 2026-05-04 00:56 | -19.00135 | -46.45230 | 34187 ft | 448 kts | 289° |
| 2026-05-04 00:57 | -18.98014 | -46.51410 | 34183 ft | 447 kts | 289° |
| 2026-05-04 00:57 | -18.95891 | -46.57598 | 34184 ft | 448 kts | 289° |
| 2026-05-04 00:58 | -18.93766 | -46.63789 | 34186 ft | 448 kts | 289° |
| 2026-05-04 00:58 | -18.91761 | -46.69972 | 34185 ft | 448 kts | 287° |
| 2026-05-04 00:59 | -18.89795 | -46.76219 | 34169 ft | 448 kts | 287° |
| 2026-05-04 00:59 | -18.87812 | -46.82459 | 34179 ft | 448 kts | 288° |
| 2026-05-04 01:00 | -18.85820 | -46.88695 | 34189 ft | 448 kts | 288° |
| 2026-05-04 01:00 | -18.83824 | -46.94930 | 34186 ft | 448 kts | 288° |
| 2026-05-04 01:01 | -18.81839 | -47.01124 | 34168 ft | 449 kts | 288° |
| 2026-05-04 01:01 | -18.79843 | -47.07355 | 34178 ft | 448 kts | 288° |
| 2026-05-04 01:02 | -18.77843 | -47.13590 | 34176 ft | 448 kts | 288° |
| 2026-05-04 01:02 | -18.75838 | -47.19821 | 34167 ft | 448 kts | 288° |
| 2026-05-04 01:03 | -18.73835 | -47.26053 | 34166 ft | 449 kts | 288° |
| 2026-05-04 01:03 | -18.71840 | -47.32238 | 34167 ft | 449 kts | 288° |
| 2026-05-04 01:04 | -18.69833 | -47.38473 | 34166 ft | 449 kts | 288° |
| 2026-05-04 01:04 | -18.67818 | -47.44708 | 34165 ft | 450 kts | 288° |
| 2026-05-04 01:05 | -18.65802 | -47.50940 | 34166 ft | 449 kts | 288° |
| 2026-05-04 01:05 | -18.63800 | -47.57135 | 34166 ft | 449 kts | 288° |
| 2026-05-04 01:06 | -18.61780 | -47.63372 | 34155 ft | 449 kts | 288° |
| 2026-05-04 01:06 | -18.59759 | -47.69605 | 34162 ft | 450 kts | 288° |
| 2026-05-04 01:07 | -18.57732 | -47.75846 | 34156 ft | 450 kts | 288° |
| 2026-05-04 01:07 | -18.55712 | -47.82044 | 34155 ft | 450 kts | 288° |
| 2026-05-04 01:08 | -18.53677 | -47.88290 | 34158 ft | 450 kts | 288° |
| 2026-05-04 01:08 | -18.51639 | -47.94523 | 34159 ft | 450 kts | 288° |
| 2026-05-04 01:09 | -18.49602 | -48.00764 | 34157 ft | 451 kts | 288° |
| 2026-05-04 01:09 | -18.47573 | -48.06964 | 34158 ft | 451 kts | 288° |
| 2026-05-04 01:10 | -18.45528 | -48.13203 | 34156 ft | 451 kts | 288° |
| 2026-05-04 01:10 | -18.43482 | -48.19448 | 34159 ft | 451 kts | 288° |
| 2026-05-04 01:11 | -18.41433 | -48.25688 | 34162 ft | 451 kts | 288° |
| 2026-05-04 01:11 | -18.39384 | -48.31928 | 34155 ft | 451 kts | 288° |
| 2026-05-04 01:12 | -18.37338 | -48.38160 | 34159 ft | 450 kts | 288° |
| 2026-05-04 01:12 | -18.35305 | -48.44349 | 34146 ft | 451 kts | 288° |
| 2026-05-04 01:13 | -18.33253 | -48.50579 | 34150 ft | 450 kts | 288° |
| 2026-05-04 01:13 | -18.31197 | -48.56806 | 34151 ft | 451 kts | 288° |
| 2026-05-04 01:14 | -18.29138 | -48.63031 | 34147 ft | 451 kts | 288° |
| 2026-05-04 01:14 | -18.27093 | -48.69213 | 34150 ft | 450 kts | 288° |
| 2026-05-04 01:15 | -18.25033 | -48.75432 | 34152 ft | 450 kts | 288° |
| 2026-05-04 01:15 | -18.23317 | -48.80598 | 34146 ft | 450 kts | 288° |
| 2026-05-04 01:16 | -18.21258 | -48.86810 | 34149 ft | 450 kts | 288° |
| 2026-05-04 01:16 | -18.18857 | -48.94025 | 34142 ft | 450 kts | 288° |
| 2026-05-04 01:17 | -18.17136 | -48.99184 | 34140 ft | 450 kts | 288° |
| 2026-05-04 01:17 | -18.15066 | -49.05386 | 34146 ft | 450 kts | 288° |
| 2026-05-04 01:18 | -18.12994 | -49.11594 | 34151 ft | 450 kts | 288° |
| 2026-05-04 01:18 | -18.10917 | -49.17799 | 34134 ft | 450 kts | 288° |
| 2026-05-04 01:19 | -18.08841 | -49.23996 | 34140 ft | 450 kts | 288° |
| 2026-05-04 01:19 | -18.06775 | -49.30170 | 34120 ft | 451 kts | 288° |
| 2026-05-04 01:20 | -18.04694 | -49.36376 | 34122 ft | 450 kts | 288° |
| 2026-05-04 01:20 | -18.02607 | -49.42585 | 34122 ft | 451 kts | 288° |
| 2026-05-04 01:21 | -18.00521 | -49.48793 | 34121 ft | 451 kts | 288° |
| 2026-05-04 01:21 | -17.98447 | -49.54961 | 34123 ft | 452 kts | 288° |
| 2026-05-04 01:22 | -17.96350 | -49.61184 | 34106 ft | 452 kts | 288° |
| 2026-05-04 01:22 | -17.94253 | -49.67408 | 34113 ft | 452 kts | 288° |
| 2026-05-04 01:23 | -17.92154 | -49.73628 | 34111 ft | 452 kts | 288° |
| 2026-05-04 01:23 | -17.90069 | -49.79796 | 34110 ft | 451 kts | 288° |
| 2026-05-04 01:24 | -17.87964 | -49.86007 | 34114 ft | 451 kts | 288° |
| 2026-05-04 01:24 | -17.85861 | -49.92216 | 34113 ft | 451 kts | 288° |
| 2026-05-04 01:25 | -17.83753 | -49.98424 | 34111 ft | 451 kts | 288° |
| 2026-05-04 01:25 | -17.81660 | -50.04591 | 34102 ft | 452 kts | 288° |
| 2026-05-04 01:26 | -17.79549 | -50.10795 | 34100 ft | 452 kts | 288° |
| 2026-05-04 01:26 | -17.77424 | -50.16996 | 34104 ft | 452 kts | 289° |
| 2026-05-04 01:27 | -17.75232 | -50.23177 | 34102 ft | 452 kts | 289° |
| 2026-05-04 01:27 | -17.73061 | -50.29320 | 34102 ft | 452 kts | 289° |
| 2026-05-04 01:28 | -17.70874 | -50.35504 | 34102 ft | 452 kts | 289° |
| 2026-05-04 01:28 | -17.68685 | -50.41690 | 34089 ft | 452 kts | 289° |
| 2026-05-04 01:29 | -17.66496 | -50.47871 | 34093 ft | 453 kts | 289° |
| 2026-05-04 01:29 | -17.64317 | -50.54017 | 34090 ft | 453 kts | 289° |
| 2026-05-04 01:30 | -17.62118 | -50.60202 | 34092 ft | 453 kts | 289° |
| 2026-05-04 01:30 | -17.59923 | -50.66391 | 34096 ft | 453 kts | 289° |
| 2026-05-04 01:31 | -17.57723 | -50.72581 | 34083 ft | 453 kts | 289° |
| 2026-05-04 01:31 | -17.55521 | -50.78769 | 34086 ft | 453 kts | 289° |
| 2026-05-04 01:32 | -17.53330 | -50.84911 | 34088 ft | 454 kts | 289° |
| 2026-05-04 01:32 | -17.51115 | -50.91107 | 34080 ft | 454 kts | 289° |
| 2026-05-04 01:33 | -17.48909 | -50.97293 | 34078 ft | 453 kts | 289° |
| 2026-05-04 01:33 | -17.46699 | -51.03481 | 34076 ft | 453 kts | 289° |
| 2026-05-04 01:34 | -17.44495 | -51.09624 | 34077 ft | 454 kts | 289° |
| 2026-05-04 01:34 | -17.42277 | -51.15817 | 34065 ft | 454 kts | 289° |
| 2026-05-04 01:35 | -17.40055 | -51.22002 | 34066 ft | 454 kts | 290° |
| 2026-05-04 01:35 | -17.37849 | -51.28141 | 34065 ft | 454 kts | 290° |
| 2026-05-04 01:36 | -17.35616 | -51.34321 | 34055 ft | 454 kts | 290° |
| 2026-05-04 01:36 | -17.33375 | -51.40498 | 34054 ft | 454 kts | 290° |
| 2026-05-04 01:37 | -17.31136 | -51.46675 | 34054 ft | 454 kts | 290° |
| 2026-05-04 01:37 | -17.28901 | -51.52804 | 34039 ft | 455 kts | 290° |
| 2026-05-04 01:38 | -17.26656 | -51.58982 | 34050 ft | 454 kts | 290° |
| 2026-05-04 01:38 | -17.24408 | -51.65158 | 34047 ft | 454 kts | 290° |
| 2026-05-04 01:39 | -17.22210 | -51.71178 | 34045 ft | 454 kts | 290° |
| 2026-05-04 01:39 | -17.19975 | -51.77299 | 34041 ft | 454 kts | 290° |
| 2026-05-04 01:40 | -17.17719 | -51.83471 | 34045 ft | 454 kts | 290° |
| 2026-05-04 01:40 | -17.15464 | -51.89641 | 34038 ft | 455 kts | 290° |
| 2026-05-04 01:41 | -17.13206 | -51.95817 | 34020 ft | 455 kts | 290° |
| 2026-05-04 01:41 | -17.10957 | -52.01952 | 34025 ft | 455 kts | 290° |
| 2026-05-04 01:42 | -17.08691 | -52.08129 | 34034 ft | 456 kts | 290° |
| 2026-05-04 01:42 | -17.06420 | -52.14311 | 34026 ft | 455 kts | 290° |
| 2026-05-04 01:43 | -17.04145 | -52.20493 | 34026 ft | 456 kts | 290° |
| 2026-05-04 01:43 | -17.01888 | -52.26634 | 34017 ft | 456 kts | 290° |
| 2026-05-04 01:44 | -16.99605 | -52.32815 | 34020 ft | 456 kts | 290° |
| 2026-05-04 01:44 | -16.97323 | -52.38994 | 34018 ft | 456 kts | 290° |
| 2026-05-04 01:45 | -16.95034 | -52.45183 | 34008 ft | 456 kts | 290° |
| 2026-05-04 01:45 | -16.91618 | -52.54417 | 33997 ft | 457 kts | 290° |
| 2026-05-04 01:46 | -16.89327 | -52.60597 | 33997 ft | 457 kts | 290° |
| 2026-05-04 01:46 | -16.87035 | -52.66782 | 34004 ft | 457 kts | 290° |
| 2026-05-04 01:47 | -16.84736 | -52.72964 | 34000 ft | 457 kts | 290° |
| 2026-05-04 01:47 | -16.82438 | -52.79153 | 33996 ft | 457 kts | 290° |
| 2026-05-04 01:48 | -16.80153 | -52.85299 | 34003 ft | 457 kts | 290° |
| 2026-05-04 01:48 | -16.77848 | -52.91486 | 34001 ft | 457 kts | 290° |
| 2026-05-04 01:49 | -16.75542 | -52.97668 | 33996 ft | 457 kts | 290° |
| 2026-05-04 01:49 | -16.73234 | -53.03857 | 34000 ft | 457 kts | 290° |
| 2026-05-04 01:50 | -16.70993 | -53.10014 | 34003 ft | 457 kts | 284° |
| 2026-05-04 01:50 | -16.69590 | -53.16480 | 33992 ft | 458 kts | 281° |
| 2026-05-04 01:51 | -16.68274 | -53.22965 | 34000 ft | 457 kts | 281° |
| 2026-05-04 01:51 | -16.66951 | -53.29448 | 33997 ft | 457 kts | 281° |
| 2026-05-04 01:52 | -16.65634 | -53.35887 | 34002 ft | 457 kts | 281° |
| 2026-05-04 01:52 | -16.64310 | -53.42371 | 33997 ft | 458 kts | 281° |
| 2026-05-04 01:53 | -16.62975 | -53.48856 | 33998 ft | 458 kts | 281° |
| 2026-05-04 01:53 | -16.61647 | -53.55304 | 34002 ft | 458 kts | 281° |
| 2026-05-04 01:54 | -16.60311 | -53.61788 | 34000 ft | 458 kts | 281° |
| 2026-05-04 01:54 | -16.58969 | -53.68287 | 33998 ft | 458 kts | 281° |
| 2026-05-04 01:55 | -16.57627 | -53.74783 | 34000 ft | 458 kts | 281° |
| 2026-05-04 01:55 | -16.56281 | -53.81280 | 34002 ft | 458 kts | 281° |
| 2026-05-04 01:56 | -16.54943 | -53.87734 | 34001 ft | 459 kts | 281° |
| 2026-05-04 01:56 | -16.53592 | -53.94236 | 34001 ft | 459 kts | 281° |
| 2026-05-04 01:57 | -16.52239 | -54.00738 | 34001 ft | 459 kts | 281° |
| 2026-05-04 01:57 | -16.50883 | -54.07243 | 34000 ft | 459 kts | 281° |
| 2026-05-04 01:58 | -16.49534 | -54.13702 | 34002 ft | 459 kts | 281° |
| 2026-05-04 01:58 | -16.48175 | -54.20203 | 34002 ft | 459 kts | 281° |
| 2026-05-04 01:59 | -16.46817 | -54.26700 | 34000 ft | 459 kts | 281° |
| 2026-05-04 01:59 | -16.45453 | -54.33200 | 34002 ft | 459 kts | 282° |
| 2026-05-04 02:00 | -16.44086 | -54.39698 | 34001 ft | 459 kts | 282° |
| 2026-05-04 02:00 | -16.42728 | -54.46148 | 34000 ft | 459 kts | 282° |
| 2026-05-04 02:01 | -16.41359 | -54.52647 | 33992 ft | 459 kts | 281° |
| 2026-05-04 02:01 | -16.39984 | -54.59139 | 33991 ft | 459 kts | 282° |
| 2026-05-04 02:02 | -16.38615 | -54.65627 | 33991 ft | 459 kts | 282° |
| 2026-05-04 02:02 | -16.37240 | -54.72122 | 33992 ft | 459 kts | 282° |
| 2026-05-04 02:03 | -16.35876 | -54.78551 | 33603 ft | 453 kts | 282° |
| 2026-05-04 02:03 | -16.35205 | -54.81690 | 33365 ft | 437 kts | 282° |
| 2026-05-04 02:03 | -16.34554 | -54.84765 | 32665 ft | 433 kts | 282° |
| 2026-05-04 02:04 | -16.33911 | -54.87798 | 32147 ft | 425 kts | 282° |
| 2026-05-04 02:04 | -16.33277 | -54.90784 | 31547 ft | 420 kts | 282° |
| 2026-05-04 02:04 | -16.32652 | -54.93723 | 31001 ft | 413 kts | 282° |
| 2026-05-04 02:04 | -16.32034 | -54.96624 | 30469 ft | 407 kts | 282° |
| 2026-05-04 02:05 | -16.31423 | -54.99489 | 29907 ft | 405 kts | 282° |
| 2026-05-04 02:05 | -16.30821 | -55.02320 | 29422 ft | 409 kts | 282° |
| 2026-05-04 02:05 | -16.30200 | -55.05236 | 28911 ft | 416 kts | 282° |
| 2026-05-04 02:05 | -16.29569 | -55.08186 | 28585 ft | 418 kts | 282° |
| 2026-05-04 02:06 | -16.28933 | -55.11144 | 28381 ft | 416 kts | 282° |
| 2026-05-04 02:06 | -16.28315 | -55.14031 | 28122 ft | 402 kts | 282° |
| 2026-05-04 02:06 | -16.27719 | -55.16818 | 27875 ft | 388 kts | 282° |
| 2026-05-04 02:06 | -16.27142 | -55.19517 | 27624 ft | 376 kts | 282° |
| 2026-05-04 02:07 | -16.26578 | -55.22131 | 27374 ft | 364 kts | 282° |
| 2026-05-04 02:07 | -16.26042 | -55.24633 | 27127 ft | 354 kts | 282° |
| 2026-05-04 02:07 | -16.25487 | -55.27084 | 26985 ft | 340 kts | 287° |
| 2026-05-04 02:07 | -16.24564 | -55.29268 | 26991 ft | 324 kts | 301° |
| 2026-05-04 02:08 | -16.23272 | -55.31200 | 26459 ft | 327 kts | 307° |
| 2026-05-04 02:08 | -16.21869 | -55.33057 | 26031 ft | 325 kts | 308° |
| 2026-05-04 02:08 | -16.20469 | -55.34899 | 25568 ft | 324 kts | 307° |
| 2026-05-04 02:08 | -16.19089 | -55.36741 | 25168 ft | 321 kts | 307° |
| 2026-05-04 02:09 | -16.17723 | -55.38574 | 24716 ft | 320 kts | 307° |
| 2026-05-04 02:09 | -16.16402 | -55.40385 | 24315 ft | 317 kts | 307° |
| 2026-05-04 02:09 | -16.15083 | -55.42208 | 23890 ft | 315 kts | 307° |
| 2026-05-04 02:09 | -16.13762 | -55.44011 | 23476 ft | 313 kts | 307° |
| 2026-05-04 02:10 | -16.12444 | -55.45799 | 23063 ft | 310 kts | 307° |
| 2026-05-04 02:10 | -16.11133 | -55.47567 | 22651 ft | 308 kts | 307° |
| 2026-05-04 02:10 | -16.09829 | -55.49321 | 22244 ft | 305 kts | 308° |
| 2026-05-04 02:10 | -16.08532 | -55.51063 | 21836 ft | 304 kts | 308° |
| 2026-05-04 02:11 | -16.07247 | -55.52793 | 21427 ft | 301 kts | 308° |
| 2026-05-04 02:11 | -16.05968 | -55.54510 | 21040 ft | 300 kts | 308° |
| 2026-05-04 02:11 | -16.04711 | -55.56201 | 20645 ft | 298 kts | 308° |
| 2026-05-04 02:11 | -16.03448 | -55.57897 | 20257 ft | 296 kts | 308° |
| 2026-05-04 02:12 | -16.02189 | -55.59588 | 19863 ft | 295 kts | 308° |
| 2026-05-04 02:12 | -16.00938 | -55.61270 | 19474 ft | 293 kts | 308° |
| 2026-05-04 02:12 | -15.99696 | -55.62942 | 19086 ft | 292 kts | 308° |
| 2026-05-04 02:12 | -15.98457 | -55.64607 | 18698 ft | 290 kts | 308° |
| 2026-05-04 02:13 | -15.97224 | -55.66260 | 18313 ft | 289 kts | 308° |
| 2026-05-04 02:13 | -15.95997 | -55.67905 | 17934 ft | 287 kts | 308° |
| 2026-05-04 02:13 | -15.94776 | -55.69543 | 17551 ft | 286 kts | 308° |
| 2026-05-04 02:13 | -15.93577 | -55.71151 | 17179 ft | 285 kts | 308° |
| 2026-05-04 02:14 | -15.92369 | -55.72772 | 16803 ft | 283 kts | 308° |
| 2026-05-04 02:14 | -15.91164 | -55.74389 | 16421 ft | 282 kts | 308° |
| 2026-05-04 02:14 | -15.89967 | -55.75995 | 16053 ft | 281 kts | 308° |
| 2026-05-04 02:14 | -15.88774 | -55.77596 | 15676 ft | 279 kts | 308° |
| 2026-05-04 02:15 | -15.87588 | -55.79187 | 15306 ft | 278 kts | 308° |
| 2026-05-04 02:15 | -15.86407 | -55.80774 | 14942 ft | 277 kts | 309° |
| 2026-05-04 02:15 | -15.85241 | -55.82335 | 14581 ft | 277 kts | 309° |
| 2026-05-04 02:15 | -15.84066 | -55.83908 | 14213 ft | 275 kts | 309° |
| 2026-05-04 02:16 | -15.82891 | -55.85477 | 13837 ft | 275 kts | 309° |
| 2026-05-04 02:16 | -15.81720 | -55.87046 | 13457 ft | 274 kts | 309° |
| 2026-05-04 02:16 | -15.80555 | -55.88607 | 13094 ft | 273 kts | 309° |
| 2026-05-04 02:16 | -15.79391 | -55.90162 | 12736 ft | 272 kts | 309° |
| 2026-05-04 02:17 | -15.78233 | -55.91714 | 12376 ft | 271 kts | 309° |
| 2026-05-04 02:17 | -15.77076 | -55.93257 | 12019 ft | 270 kts | 312° |
| 2026-05-04 02:17 | -15.75662 | -55.94507 | 11664 ft | 266 kts | 331° |
| 2026-05-04 02:17 | -15.74046 | -55.95409 | 11331 ft | 263 kts | 335° |
| 2026-05-04 02:18 | -15.72424 | -55.96248 | 10955 ft | 264 kts | 335° |
| 2026-05-04 02:18 | -15.70787 | -55.97100 | 10616 ft | 263 kts | 334° |
| 2026-05-04 02:18 | -15.69168 | -55.97953 | 10285 ft | 258 kts | 334° |
| 2026-05-04 02:18 | -15.67595 | -55.98785 | 9919 ft | 251 kts | 334° |
| 2026-05-04 02:19 | -15.66061 | -55.99598 | 9596 ft | 243 kts | 334° |
| 2026-05-04 02:19 | -15.64577 | -56.00390 | 9296 ft | 236 kts | 334° |
| 2026-05-04 02:19 | -15.63134 | -56.01158 | 9010 ft | 230 kts | 334° |
| 2026-05-04 02:19 | -15.61729 | -56.01905 | 8708 ft | 225 kts | 334° |
| 2026-05-04 02:20 | -15.60350 | -56.02635 | 8412 ft | 220 kts | 334° |
| 2026-05-04 02:20 | -15.59009 | -56.03331 | 8118 ft | 216 kts | 334° |
| 2026-05-04 02:20 | -15.57677 | -56.04021 | 7834 ft | 212 kts | 334° |
| 2026-05-04 02:20 | -15.56367 | -56.04701 | 7538 ft | 210 kts | 334° |
| 2026-05-04 02:21 | -15.55014 | -56.05402 | 6854 ft | 226 kts | 334° |
| 2026-05-04 02:21 | -15.53563 | -56.06150 | 6121 ft | 240 kts | 334° |
| 2026-05-04 02:21 | -15.52041 | -56.06928 | 5345 ft | 246 kts | 334° |
| 2026-05-04 02:21 | -15.50532 | -56.07700 | 4917 ft | 232 kts | 334° |
| 2026-05-04 02:22 | -15.49161 | -56.08394 | 4814 ft | 209 kts | 334° |
| 2026-05-04 02:22 | -15.47906 | -56.09031 | 4820 ft | 199 kts | 334° |
| 2026-05-04 02:22 | -15.46666 | -56.09661 | 4825 ft | 198 kts | 334° |
| 2026-05-04 02:22 | -15.45417 | -56.10295 | 4686 ft | 206 kts | 334° |
| 2026-05-04 02:23 | -15.44147 | -56.11088 | 4031 ft | 221 kts | 316° |
| 2026-05-04 02:23 | -15.43377 | -56.12485 | 3383 ft | 231 kts | 281° |
| 2026-05-04 02:23 | -15.43558 | -56.14050 | 3293 ft | 213 kts | 246° |
| 2026-05-04 02:23 | -15.44201 | -56.15366 | 3276 ft | 197 kts | 243° |
| 2026-05-04 02:24 | -15.44803 | -56.16603 | 3242 ft | 189 kts | 243° |
| 2026-05-04 02:24 | -15.45407 | -56.17840 | 2926 ft | 199 kts | 243° |
| 2026-05-04 02:24 | -15.46020 | -56.19090 | 2726 ft | 192 kts | 243° |
| 2026-05-04 02:24 | -15.46612 | -56.20293 | 2657 ft | 183 kts | 243° |
| 2026-05-04 02:25 | -15.47264 | -56.21410 | 2674 ft | 184 kts | 226° |
| 2026-05-04 02:25 | -15.48431 | -56.22061 | 2149 ft | 201 kts | 186° |
| 2026-05-04 02:25 | -15.49752 | -56.21777 | 1912 ft | 193 kts | 152° |
| 2026-05-04 02:25 | -15.50906 | -56.21119 | 1726 ft | 186 kts | 153° |
| 2026-05-04 02:26 | -15.52053 | -56.20498 | 1456 ft | 186 kts | 153° |
| 2026-05-04 02:26 | -15.53144 | -56.19904 | 1443 ft | 174 kts | 153° |
| 2026-05-04 02:26 | -15.54153 | -56.19220 | 1618 ft | 177 kts | 139° |
| 2026-05-04 02:26 | -15.55049 | -56.18326 | 1778 ft | 176 kts | 136° |
| 2026-05-04 02:27 | -15.55930 | -56.17501 | 1730 ft | 169 kts | 137° |
| 2026-05-04 02:27 | -15.56763 | -56.16656 | 1612 ft | 163 kts | 137° |
| 2026-05-04 02:27 | -15.57601 | -56.15924 | 1549 ft | 155 kts | 143° |
| 2026-05-04 02:27 | -15.58486 | -56.15306 | 1459 ft | 153 kts | 150° |
| 2026-05-04 02:28 | -15.59435 | -56.14785 | 1343 ft | 155 kts | 153° |
| 2026-05-04 02:28 | -15.60382 | -56.14274 | 1289 ft | 153 kts | 153° |
| 2026-05-04 02:28 | -15.61324 | -56.13784 | 1192 ft | 153 kts | 153° |
| 2026-05-04 02:28 | -15.62265 | -56.13268 | 1034 ft | 153 kts | 152° |
| 2026-05-04 02:29 | -15.63201 | -56.12773 | 876 ft | 150 kts | 153° |
| 2026-05-04 02:29 | -15.64125 | -56.12288 | 677 ft | 148 kts | 153° |
| 2026-05-04 02:29 | -15.65015 | -56.11818 | 597 ft | 131 kts | 153° |
| 2026-05-04 02:29 | -15.65672 | -56.11469 | 597 ft | 83 kts | 153° |
| 2026-05-04 02:30 | -15.66042 | -56.11273 | 596 ft | 40 kts | 152° |
| 2026-05-04 02:30 | -15.66192 | -56.11196 | 596 ft | 13 kts | 164° |
| 2026-05-04 02:30 | -15.66248 | -56.11256 | 596 ft | 14 kts | 261° |
| 2026-05-04 02:30 | -15.66198 | -56.11320 | 595 ft | 12 kts | 335° |
| 2026-05-04 02:31 | -15.66118 | -56.11360 | 595 ft | 13 kts | 333° |
| 2026-05-04 02:31 | -15.66031 | -56.11406 | 595 ft | 15 kts | 333° |
| 2026-05-04 02:31 | -15.65934 | -56.11458 | 595 ft | 17 kts | 333° |
| 2026-05-04 02:31 | -15.65828 | -56.11515 | 595 ft | 18 kts | 333° |
| 2026-05-04 02:32 | -15.65716 | -56.11575 | 596 ft | 19 kts | 333° |
| 2026-05-04 02:32 | -15.65596 | -56.11637 | 596 ft | 20 kts | 333° |
| 2026-05-04 02:32 | -15.65471 | -56.11704 | 596 ft | 20 kts | 333° |
| 2026-05-04 02:32 | -15.65343 | -56.11772 | 596 ft | 22 kts | 333° |
| 2026-05-04 02:33 | -15.65221 | -56.11837 | 596 ft | 19 kts | 333° |
| 2026-05-04 02:33 | -15.65119 | -56.11892 | 596 ft | 16 kts | 332° |
| 2026-05-04 02:33 | -15.65019 | -56.11945 | 595 ft | 14 kts | 333° |
| 2026-05-04 02:33 | -15.64987 | -56.11963 | 595 ft | 2 kts | 332° |
| 2026-05-04 02:34 | -15.64965 | -56.11974 | 595 ft | 5 kts | 335° |
| 2026-05-04 02:34 | -15.64964 | -56.12002 | 595 ft | 5 kts | 251° |
| 2026-05-04 02:34 | -15.64975 | -56.12023 | 595 ft | 1 kts | 243° |
| 2026-05-04 02:34 | -15.64975 | -56.12024 | 595 ft | 0 kts | 243° |